sensor_id;sensor_type;location;lat;lon;timestamp;temperature;humidity
23079;DHT22;11707;50.830;4.364;2022-07-30T00:01:59;17.60;99.90
23079;DHT22;11707;50.830;4.364;2022-07-30T00:04:25;17.70;99.90
23079;DHT22;11707;50.830;4.364;2022-07-30T00:06:51;17.70;99.90
23079;DHT22;11707;50.830;4.364;2022-07-30T00:09:17;17.80;99.90
23079;DHT22;11707;50.830;4.364;2022-07-30T00:11:42;17.90;99.90
23079;DHT22;11707;50.830;4.364;2022-07-30T00:14:08;17.90;99.90
23079;DHT22;11707;50.830;4.364;2022-07-30T00:16:34;17.80;99.90
23079;DHT22;11707;50.830;4.364;2022-07-30T00:19:00;17.80;99.90
23079;DHT22;11707;50.830;4.364;2022-07-30T00:21:26;17.70;99.90
23079;DHT22;11707;50.830;4.364;2022-07-30T00:23:52;17.70;99.90
23079;DHT22;11707;50.830;4.364;2022-07-30T00:26:18;17.80;99.90
23079;DHT22;11707;50.830;4.364;2022-07-30T00:28:43;17.70;99.90
23079;DHT22;11707;50.830;4.364;2022-07-30T00:31:09;17.70;99.90
23079;DHT22;11707;50.830;4.364;2022-07-30T00:33:35;17.70;99.90
23079;DHT22;11707;50.830;4.364;2022-07-30T00:36:00;17.60;99.90
23079;DHT22;11707;50.830;4.364;2022-07-30T00:38:26;17.70;99.90
23079;DHT22;11707;50.830;4.364;2022-07-30T00:40:52;17.60;99.90
23079;DHT22;11707;50.830;4.364;2022-07-30T00:43:18;17.50;99.90
23079;DHT22;11707;50.830;4.364;2022-07-30T00:45:44;17.50;99.90
23079;DHT22;11707;50.830;4.364;2022-07-30T00:48:11;17.50;99.90
23079;DHT22;11707;50.830;4.364;2022-07-30T00:50:38;17.60;99.90
23079;DHT22;11707;50.830;4.364;2022-07-30T00:53:04;17.50;99.90
23079;DHT22;11707;50.830;4.364;2022-07-30T00:55:30;17.60;99.90
23079;DHT22;11707;50.830;4.364;2022-07-30T00:57:56;17.50;99.90
23079;DHT22;11707;50.830;4.364;2022-07-30T01:00:22;17.40;99.90
23079;DHT22;11707;50.830;4.364;2022-07-30T01:02:48;17.40;99.90
23079;DHT22;11707;50.830;4.364;2022-07-30T01:05:14;17.50;99.90
23079;DHT22;11707;50.830;4.364;2022-07-30T01:07:39;17.50;99.90
23079;DHT22;11707;50.830;4.364;2022-07-30T01:10:07;17.50;99.90
23079;DHT22;11707;50.830;4.364;2022-07-30T01:12:33;17.50;99.90
23079;DHT22;11707;50.830;4.364;2022-07-30T01:15:00;17.50;99.90
23079;DHT22;11707;50.830;4.364;2022-07-30T01:17:27;17.60;99.90
23079;DHT22;11707;50.830;4.364;2022-07-30T01:19:58;17.70;99.90
23079;DHT22;11707;50.830;4.364;2022-07-30T01:25:09;17.70;99.90
23079;DHT22;11707;50.830;4.364;2022-07-30T01:28:13;17.70;99.90
23079;DHT22;11707;50.830;4.364;2022-07-30T01:30:42;17.70;99.90
23079;DHT22;11707;50.830;4.364;2022-07-30T01:33:13;17.70;99.90
23079;DHT22;11707;50.830;4.364;2022-07-30T01:35:39;17.60;99.90
23079;DHT22;11707;50.830;4.364;2022-07-30T01:38:06;17.60;99.90
23079;DHT22;11707;50.830;4.364;2022-07-30T01:40:36;17.60;99.90
23079;DHT22;11707;50.830;4.364;2022-07-30T01:43:04;17.50;99.90
23079;DHT22;11707;50.830;4.364;2022-07-30T01:45:31;17.50;99.90
23079;DHT22;11707;50.830;4.364;2022-07-30T01:47:58;17.40;99.90
23079;DHT22;11707;50.830;4.364;2022-07-30T01:50:25;17.40;99.90
23079;DHT22;11707;50.830;4.364;2022-07-30T01:52:53;17.40;99.90
23079;DHT22;11707;50.830;4.364;2022-07-30T01:55:39;17.30;99.90
23079;DHT22;11707;50.830;4.364;2022-07-30T01:58:06;17.20;99.90
23079;DHT22;11707;50.830;4.364;2022-07-30T02:00:38;17.10;99.90
23079;DHT22;11707;50.830;4.364;2022-07-30T02:03:05;17.10;99.90
23079;DHT22;11707;50.830;4.364;2022-07-30T02:05:35;17.00;99.90
23079;DHT22;11707;50.830;4.364;2022-07-30T02:08:17;16.90;99.90
23079;DHT22;11707;50.830;4.364;2022-07-30T02:10:50;16.90;99.90
23079;DHT22;11707;50.830;4.364;2022-07-30T02:13:20;16.80;99.90
23079;DHT22;11707;50.830;4.364;2022-07-30T02:15:58;16.80;99.90
23079;DHT22;11707;50.830;4.364;2022-07-30T02:18:38;16.70;99.90
23079;DHT22;11707;50.830;4.364;2022-07-30T02:21:07;16.80;99.90
23079;DHT22;11707;50.830;4.364;2022-07-30T02:23:44;16.80;99.90
23079;DHT22;11707;50.830;4.364;2022-07-30T02:26:17;16.90;99.90
23079;DHT22;11707;50.830;4.364;2022-07-30T02:28:46;16.90;99.90
23079;DHT22;11707;50.830;4.364;2022-07-30T02:31:16;16.80;99.90
23079;DHT22;11707;50.830;4.364;2022-07-30T02:33:44;16.70;99.90
23079;DHT22;11707;50.830;4.364;2022-07-30T02:36:11;16.70;99.90
23079;DHT22;11707;50.830;4.364;2022-07-30T02:38:38;16.70;99.90
23079;DHT22;11707;50.830;4.364;2022-07-30T02:41:07;16.50;99.90
23079;DHT22;11707;50.830;4.364;2022-07-30T02:43:36;16.40;99.90
23079;DHT22;11707;50.830;4.364;2022-07-30T02:46:05;16.30;99.90
23079;DHT22;11707;50.830;4.364;2022-07-30T02:48:32;16.40;99.90
23079;DHT22;11707;50.830;4.364;2022-07-30T02:50:59;16.30;99.90
23079;DHT22;11707;50.830;4.364;2022-07-30T02:53:26;16.30;99.90
23079;DHT22;11707;50.830;4.364;2022-07-30T02:55:54;16.30;99.90
23079;DHT22;11707;50.830;4.364;2022-07-30T02:58:22;16.20;99.90
23079;DHT22;11707;50.830;4.364;2022-07-30T03:00:51;16.20;99.90
23079;DHT22;11707;50.830;4.364;2022-07-30T03:03:17;16.20;99.90
23079;DHT22;11707;50.830;4.364;2022-07-30T03:05:43;16.20;99.90
23079;DHT22;11707;50.830;4.364;2022-07-30T03:08:14;16.20;99.90
23079;DHT22;11707;50.830;4.364;2022-07-30T03:10:42;16.20;99.90
23079;DHT22;11707;50.830;4.364;2022-07-30T03:13:09;16.20;99.90
23079;DHT22;11707;50.830;4.364;2022-07-30T03:15:42;16.20;99.90
23079;DHT22;11707;50.830;4.364;2022-07-30T03:18:12;16.30;99.90
23079;DHT22;11707;50.830;4.364;2022-07-30T03:20:38;16.20;99.90
23079;DHT22;11707;50.830;4.364;2022-07-30T03:23:05;16.20;99.90
23079;DHT22;11707;50.830;4.364;2022-07-30T03:25:31;16.30;99.90
23079;DHT22;11707;50.830;4.364;2022-07-30T03:28:00;16.30;99.90
23079;DHT22;11707;50.830;4.364;2022-07-30T03:30:28;16.30;99.90
23079;DHT22;11707;50.830;4.364;2022-07-30T03:32:56;16.30;99.90
23079;DHT22;11707;50.830;4.364;2022-07-30T03:35:22;16.30;99.90
23079;DHT22;11707;50.830;4.364;2022-07-30T03:37:52;16.30;99.90
23079;DHT22;11707;50.830;4.364;2022-07-30T03:40:19;16.20;99.90
23079;DHT22;11707;50.830;4.364;2022-07-30T03:42:46;16.30;99.90
23079;DHT22;11707;50.830;4.364;2022-07-30T03:45:12;16.30;99.90
23079;DHT22;11707;50.830;4.364;2022-07-30T03:47:39;16.30;99.90
23079;DHT22;11707;50.830;4.364;2022-07-30T03:50:07;16.20;99.90
23079;DHT22;11707;50.830;4.364;2022-07-30T03:52:36;16.30;99.90
23079;DHT22;11707;50.830;4.364;2022-07-30T03:55:03;16.30;99.90
23079;DHT22;11707;50.830;4.364;2022-07-30T03:57:29;16.40;99.90
23079;DHT22;11707;50.830;4.364;2022-07-30T03:59:55;16.60;99.90
23079;DHT22;11707;50.830;4.364;2022-07-30T04:02:21;16.60;99.90
23079;DHT22;11707;50.830;4.364;2022-07-30T04:04:47;16.60;99.90
23079;DHT22;11707;50.830;4.364;2022-07-30T04:07:12;16.60;99.90
23079;DHT22;11707;50.830;4.364;2022-07-30T04:09:38;16.60;99.90
23079;DHT22;11707;50.830;4.364;2022-07-30T04:12:04;16.60;99.90
23079;DHT22;11707;50.830;4.364;2022-07-30T04:14:43;16.60;99.90
23079;DHT22;11707;50.830;4.364;2022-07-30T04:17:34;16.60;99.90
23079;DHT22;11707;50.830;4.364;2022-07-30T04:20:08;16.70;99.90
23079;DHT22;11707;50.830;4.364;2022-07-30T04:22:36;16.60;99.90
23079;DHT22;11707;50.830;4.364;2022-07-30T04:25:03;16.50;99.90
23079;DHT22;11707;50.830;4.364;2022-07-30T04:27:32;16.60;99.90
23079;DHT22;11707;50.830;4.364;2022-07-30T04:29:58;16.60;99.90
23079;DHT22;11707;50.830;4.364;2022-07-30T04:32:25;16.60;99.90
23079;DHT22;11707;50.830;4.364;2022-07-30T04:34:53;16.50;99.90
23079;DHT22;11707;50.830;4.364;2022-07-30T04:37:22;16.50;99.90
23079;DHT22;11707;50.830;4.364;2022-07-30T04:39:48;16.60;99.90
23079;DHT22;11707;50.830;4.364;2022-07-30T04:42:23;16.50;99.90
23079;DHT22;11707;50.830;4.364;2022-07-30T04:44:49;16.60;99.90
23079;DHT22;11707;50.830;4.364;2022-07-30T04:47:16;16.70;99.90
23079;DHT22;11707;50.830;4.364;2022-07-30T04:49:42;16.80;99.90
23079;DHT22;11707;50.830;4.364;2022-07-30T04:52:10;16.90;99.90
23079;DHT22;11707;50.830;4.364;2022-07-30T04:54:57;17.10;99.90
23079;DHT22;11707;50.830;4.364;2022-07-30T04:57:24;17.00;99.90
23079;DHT22;11707;50.830;4.364;2022-07-30T04:59:51;17.00;99.90
23079;DHT22;11707;50.830;4.364;2022-07-30T05:02:18;17.10;99.90
23079;DHT22;11707;50.830;4.364;2022-07-30T05:04:46;17.00;99.90
23079;DHT22;11707;50.830;4.364;2022-07-30T05:07:13;17.00;99.90
23079;DHT22;11707;50.830;4.364;2022-07-30T05:09:39;17.00;99.90
23079;DHT22;11707;50.830;4.364;2022-07-30T05:12:05;16.90;99.90
23079;DHT22;11707;50.830;4.364;2022-07-30T05:14:31;16.90;99.90
23079;DHT22;11707;50.830;4.364;2022-07-30T05:16:57;17.10;99.90
23079;DHT22;11707;50.830;4.364;2022-07-30T05:19:23;17.20;99.90
23079;DHT22;11707;50.830;4.364;2022-07-30T05:21:49;17.20;99.90
23079;DHT22;11707;50.830;4.364;2022-07-30T05:24:15;17.20;99.90
23079;DHT22;11707;50.830;4.364;2022-07-30T05:26:41;17.20;99.90
23079;DHT22;11707;50.830;4.364;2022-07-30T05:29:07;17.30;99.90
23079;DHT22;11707;50.830;4.364;2022-07-30T05:31:32;17.40;99.90
23079;DHT22;11707;50.830;4.364;2022-07-30T05:33:58;17.50;99.90
23079;DHT22;11707;50.830;4.364;2022-07-30T05:36:24;17.70;99.90
23079;DHT22;11707;50.830;4.364;2022-07-30T05:38:49;17.80;99.90
23079;DHT22;11707;50.830;4.364;2022-07-30T05:41:15;17.80;99.90
23079;DHT22;11707;50.830;4.364;2022-07-30T05:43:41;17.70;99.90
23079;DHT22;11707;50.830;4.364;2022-07-30T05:46:07;17.80;99.90
23079;DHT22;11707;50.830;4.364;2022-07-30T05:48:33;17.90;99.90
23079;DHT22;11707;50.830;4.364;2022-07-30T05:51:04;17.80;99.90
23079;DHT22;11707;50.830;4.364;2022-07-30T05:53:30;17.90;99.90
23079;DHT22;11707;50.830;4.364;2022-07-30T05:55:56;17.90;99.90
23079;DHT22;11707;50.830;4.364;2022-07-30T05:58:22;18.00;99.90
23079;DHT22;11707;50.830;4.364;2022-07-30T06:00:48;18.00;99.90
23079;DHT22;11707;50.830;4.364;2022-07-30T06:03:14;17.80;99.90
23079;DHT22;11707;50.830;4.364;2022-07-30T06:05:40;17.80;99.90
23079;DHT22;11707;50.830;4.364;2022-07-30T06:08:06;17.80;99.90
23079;DHT22;11707;50.830;4.364;2022-07-30T06:10:32;17.60;99.90
23079;DHT22;11707;50.830;4.364;2022-07-30T06:12:57;17.70;99.90
23079;DHT22;11707;50.830;4.364;2022-07-30T06:15:23;17.80;99.90
23079;DHT22;11707;50.830;4.364;2022-07-30T06:17:49;17.80;99.90
23079;DHT22;11707;50.830;4.364;2022-07-30T06:20:16;17.80;99.90
23079;DHT22;11707;50.830;4.364;2022-07-30T06:22:42;18.00;99.90
23079;DHT22;11707;50.830;4.364;2022-07-30T06:25:09;18.00;99.90
23079;DHT22;11707;50.830;4.364;2022-07-30T06:27:35;18.20;99.90
23079;DHT22;11707;50.830;4.364;2022-07-30T06:30:06;18.00;99.90
23079;DHT22;11707;50.830;4.364;2022-07-30T06:32:33;17.90;99.90
23079;DHT22;11707;50.830;4.364;2022-07-30T06:34:59;17.90;99.90
23079;DHT22;11707;50.830;4.364;2022-07-30T06:37:25;18.10;99.90
23079;DHT22;11707;50.830;4.364;2022-07-30T06:39:50;18.20;99.90
23079;DHT22;11707;50.830;4.364;2022-07-30T06:42:16;18.30;99.90
23079;DHT22;11707;50.830;4.364;2022-07-30T06:44:42;18.40;99.90
23079;DHT22;11707;50.830;4.364;2022-07-30T06:47:08;18.40;99.90
23079;DHT22;11707;50.830;4.364;2022-07-30T06:49:35;18.30;99.90
23079;DHT22;11707;50.830;4.364;2022-07-30T06:52:01;18.40;99.90
23079;DHT22;11707;50.830;4.364;2022-07-30T06:54:27;18.50;99.90
23079;DHT22;11707;50.830;4.364;2022-07-30T06:56:52;18.50;99.90
23079;DHT22;11707;50.830;4.364;2022-07-30T06:59:18;18.70;99.90
23079;DHT22;11707;50.830;4.364;2022-07-30T07:01:44;18.80;99.90
23079;DHT22;11707;50.830;4.364;2022-07-30T07:04:10;18.90;99.90
23079;DHT22;11707;50.830;4.364;2022-07-30T07:06:36;18.90;99.90
23079;DHT22;11707;50.830;4.364;2022-07-30T07:09:02;19.00;99.90
23079;DHT22;11707;50.830;4.364;2022-07-30T07:11:28;19.00;99.90
23079;DHT22;11707;50.830;4.364;2022-07-30T07:13:53;19.00;99.90
23079;DHT22;11707;50.830;4.364;2022-07-30T07:16:19;18.90;99.90
23079;DHT22;11707;50.830;4.364;2022-07-30T07:18:47;19.20;99.90
23079;DHT22;11707;50.830;4.364;2022-07-30T07:21:14;19.20;99.90
23079;DHT22;11707;50.830;4.364;2022-07-30T07:23:40;19.10;99.90
23079;DHT22;11707;50.830;4.364;2022-07-30T07:26:05;19.20;99.90
23079;DHT22;11707;50.830;4.364;2022-07-30T07:28:31;19.20;99.90
23079;DHT22;11707;50.830;4.364;2022-07-30T07:30:57;19.30;99.90
23079;DHT22;11707;50.830;4.364;2022-07-30T07:33:22;19.50;99.90
23079;DHT22;11707;50.830;4.364;2022-07-30T07:35:48;19.50;99.90
23079;DHT22;11707;50.830;4.364;2022-07-30T07:38:14;19.50;99.90
23079;DHT22;11707;50.830;4.364;2022-07-30T07:40:39;19.50;99.90
23079;DHT22;11707;50.830;4.364;2022-07-30T07:43:05;19.60;99.90
23079;DHT22;11707;50.830;4.364;2022-07-30T07:45:31;19.80;99.90
23079;DHT22;11707;50.830;4.364;2022-07-30T07:47:56;19.80;99.90
23079;DHT22;11707;50.830;4.364;2022-07-30T07:50:22;19.90;99.90
23079;DHT22;11707;50.830;4.364;2022-07-30T07:52:48;20.10;99.90
23079;DHT22;11707;50.830;4.364;2022-07-30T07:55:14;20.20;99.90
23079;DHT22;11707;50.830;4.364;2022-07-30T07:57:44;20.40;99.90
23079;DHT22;11707;50.830;4.364;2022-07-30T08:00:12;20.50;99.90
23079;DHT22;11707;50.830;4.364;2022-07-30T08:02:39;20.60;99.90
23079;DHT22;11707;50.830;4.364;2022-07-30T08:05:06;20.50;99.90
23079;DHT22;11707;50.830;4.364;2022-07-30T08:07:33;20.60;99.90
23079;DHT22;11707;50.830;4.364;2022-07-30T08:09:59;20.60;99.90
23079;DHT22;11707;50.830;4.364;2022-07-30T08:12:25;20.70;99.90
23079;DHT22;11707;50.830;4.364;2022-07-30T08:14:52;20.90;99.90
23079;DHT22;11707;50.830;4.364;2022-07-30T08:17:18;20.80;99.90
23079;DHT22;11707;50.830;4.364;2022-07-30T08:19:44;20.80;99.90
23079;DHT22;11707;50.830;4.364;2022-07-30T08:22:10;20.90;99.90
23079;DHT22;11707;50.830;4.364;2022-07-30T08:24:36;21.10;99.90
23079;DHT22;11707;50.830;4.364;2022-07-30T08:27:02;21.30;99.90
23079;DHT22;11707;50.830;4.364;2022-07-30T08:29:28;21.60;99.90
23079;DHT22;11707;50.830;4.364;2022-07-30T08:31:54;21.60;99.90
23079;DHT22;11707;50.830;4.364;2022-07-30T08:34:20;21.60;99.90
23079;DHT22;11707;50.830;4.364;2022-07-30T08:36:46;21.90;99.90
23079;DHT22;11707;50.830;4.364;2022-07-30T08:39:12;22.20;99.90
23079;DHT22;11707;50.830;4.364;2022-07-30T08:41:38;22.00;99.90
23079;DHT22;11707;50.830;4.364;2022-07-30T08:44:09;22.20;99.90
23079;DHT22;11707;50.830;4.364;2022-07-30T08:46:35;22.40;99.90
23079;DHT22;11707;50.830;4.364;2022-07-30T08:49:03;22.60;99.90
23079;DHT22;11707;50.830;4.364;2022-07-30T08:51:29;22.60;99.90
23079;DHT22;11707;50.830;4.364;2022-07-30T08:53:55;22.80;99.90
23079;DHT22;11707;50.830;4.364;2022-07-30T08:56:22;22.80;99.90
23079;DHT22;11707;50.830;4.364;2022-07-30T08:58:48;22.40;99.90
23079;DHT22;11707;50.830;4.364;2022-07-30T09:01:14;22.30;99.90
23079;DHT22;11707;50.830;4.364;2022-07-30T09:03:40;22.50;99.90
23079;DHT22;11707;50.830;4.364;2022-07-30T09:06:05;22.80;99.90
23079;DHT22;11707;50.830;4.364;2022-07-30T09:08:32;23.00;99.90
23079;DHT22;11707;50.830;4.364;2022-07-30T09:10:58;23.00;99.90
23079;DHT22;11707;50.830;4.364;2022-07-30T09:13:30;23.10;99.90
23079;DHT22;11707;50.830;4.364;2022-07-30T09:15:56;23.10;99.80
23079;DHT22;11707;50.830;4.364;2022-07-30T09:18:38;23.10;99.60
23079;DHT22;11707;50.830;4.364;2022-07-30T09:24:06;22.80;99.90
23079;DHT22;11707;50.830;4.364;2022-07-30T09:26:59;22.80;99.70
23079;DHT22;11707;50.830;4.364;2022-07-30T09:29:27;23.10;99.30
23079;DHT22;11707;50.830;4.364;2022-07-30T09:32:01;23.40;99.30
23079;DHT22;11707;50.830;4.364;2022-07-30T09:34:27;23.80;98.70
23079;DHT22;11707;50.830;4.364;2022-07-30T09:36:58;24.00;98.20
23079;DHT22;11707;50.830;4.364;2022-07-30T09:39:38;24.40;97.40
23079;DHT22;11707;50.830;4.364;2022-07-30T09:42:19;24.40;96.60
23079;DHT22;11707;50.830;4.364;2022-07-30T09:44:46;24.20;97.10
23079;DHT22;11707;50.830;4.364;2022-07-30T09:47:32;23.90;97.20
23079;DHT22;11707;50.830;4.364;2022-07-30T09:52:31;23.70;97.40
23079;DHT22;11707;50.830;4.364;2022-07-30T09:54:57;23.60;97.70
23079;DHT22;11707;50.830;4.364;2022-07-30T09:57:22;23.60;97.70
23079;DHT22;11707;50.830;4.364;2022-07-30T09:59:48;23.70;97.70
23079;DHT22;11707;50.830;4.364;2022-07-30T10:02:14;23.80;97.00
23079;DHT22;11707;50.830;4.364;2022-07-30T10:04:40;23.90;97.30
23079;DHT22;11707;50.830;4.364;2022-07-30T10:07:16;23.60;97.70
23079;DHT22;11707;50.830;4.364;2022-07-30T10:09:43;23.90;97.80
23079;DHT22;11707;50.830;4.364;2022-07-30T10:12:10;24.10;97.20
23079;DHT22;11707;50.830;4.364;2022-07-30T10:14:37;24.20;96.80
23079;DHT22;11707;50.830;4.364;2022-07-30T10:17:04;24.20;97.20
23079;DHT22;11707;50.830;4.364;2022-07-30T10:19:33;24.30;96.90
23079;DHT22;11707;50.830;4.364;2022-07-30T10:22:01;24.50;96.50
23079;DHT22;11707;50.830;4.364;2022-07-30T10:24:27;24.80;95.80
23079;DHT22;11707;50.830;4.364;2022-07-30T10:26:54;24.80;94.70
23079;DHT22;11707;50.830;4.364;2022-07-30T10:29:20;25.00;94.80
23079;DHT22;11707;50.830;4.364;2022-07-30T10:31:48;24.90;94.50
23079;DHT22;11707;50.830;4.364;2022-07-30T10:34:16;24.90;94.40
23079;DHT22;11707;50.830;4.364;2022-07-30T10:36:47;25.00;94.00
23079;DHT22;11707;50.830;4.364;2022-07-30T10:39:17;25.00;94.20
23079;DHT22;11707;50.830;4.364;2022-07-30T10:46:57;24.70;94.80
23079;DHT22;11707;50.830;4.364;2022-07-30T10:49:24;24.80;95.00
23079;DHT22;11707;50.830;4.364;2022-07-30T10:51:51;25.00;95.30
23079;DHT22;11707;50.830;4.364;2022-07-30T10:54:40;25.20;94.90
23079;DHT22;11707;50.830;4.364;2022-07-30T10:57:12;25.40;94.30
23079;DHT22;11707;50.830;4.364;2022-07-30T11:02:25;25.60;94.10
23079;DHT22;11707;50.830;4.364;2022-07-30T11:07:43;25.70;93.50
23079;DHT22;11707;50.830;4.364;2022-07-30T11:10:36;25.70;93.50
23079;DHT22;11707;50.830;4.364;2022-07-30T11:13:04;25.90;93.00
23079;DHT22;11707;50.830;4.364;2022-07-30T11:15:58;25.90;92.10
23079;DHT22;11707;50.830;4.364;2022-07-30T11:18:26;26.00;92.80
23079;DHT22;11707;50.830;4.364;2022-07-30T11:21:18;26.20;92.10
23079;DHT22;11707;50.830;4.364;2022-07-30T11:23:44;26.20;91.70
23079;DHT22;11707;50.830;4.364;2022-07-30T11:29:07;26.80;90.00
23079;DHT22;11707;50.830;4.364;2022-07-30T11:31:52;26.70;90.00
23079;DHT22;11707;50.830;4.364;2022-07-30T11:42:34;26.00;90.50
23079;DHT22;11707;50.830;4.364;2022-07-30T11:47:45;25.60;91.10
23079;DHT22;11707;50.830;4.364;2022-07-30T11:50:22;26.00;90.20
23079;DHT22;11707;50.830;4.364;2022-07-30T11:52:57;26.40;89.10
23079;DHT22;11707;50.830;4.364;2022-07-30T11:55:37;26.30;88.10
23079;DHT22;11707;50.830;4.364;2022-07-30T11:58:09;26.40;86.20
23079;DHT22;11707;50.830;4.364;2022-07-30T12:00:44;26.60;85.80
23079;DHT22;11707;50.830;4.364;2022-07-30T12:03:14;26.90;84.00
23079;DHT22;11707;50.830;4.364;2022-07-30T12:05:41;27.20;82.20
23079;DHT22;11707;50.830;4.364;2022-07-30T12:08:07;27.00;81.40
23079;DHT22;11707;50.830;4.364;2022-07-30T12:10:33;26.70;82.80
23079;DHT22;11707;50.830;4.364;2022-07-30T12:13:15;26.60;83.00
23079;DHT22;11707;50.830;4.364;2022-07-30T12:15:43;26.50;82.30
23079;DHT22;11707;50.830;4.364;2022-07-30T12:18:10;26.30;83.30
23079;DHT22;11707;50.830;4.364;2022-07-30T12:20:38;26.00;84.50
23079;DHT22;11707;50.830;4.364;2022-07-30T12:23:12;25.70;86.70
23079;DHT22;11707;50.830;4.364;2022-07-30T12:25:41;25.80;86.20
23079;DHT22;11707;50.830;4.364;2022-07-30T12:28:17;26.00;85.70
23079;DHT22;11707;50.830;4.364;2022-07-30T12:30:44;26.20;85.50
23079;DHT22;11707;50.830;4.364;2022-07-30T12:33:09;26.50;84.90
23079;DHT22;11707;50.830;4.364;2022-07-30T12:38:10;26.80;84.40
23079;DHT22;11707;50.830;4.364;2022-07-30T12:40:50;27.00;82.90
23079;DHT22;11707;50.830;4.364;2022-07-30T12:43:17;27.30;79.30
23079;DHT22;11707;50.830;4.364;2022-07-30T12:45:42;27.50;79.20
23079;DHT22;11707;50.830;4.364;2022-07-30T12:48:11;27.10;80.60
23079;DHT22;11707;50.830;4.364;2022-07-30T12:50:37;27.40;80.40
23079;DHT22;11707;50.830;4.364;2022-07-30T12:53:03;27.40;79.70
23079;DHT22;11707;50.830;4.364;2022-07-30T12:55:33;27.30;80.00
23079;DHT22;11707;50.830;4.364;2022-07-30T13:00:31;29.10;76.30
23079;DHT22;11707;50.830;4.364;2022-07-30T13:02:58;30.00;72.90
23079;DHT22;11707;50.830;4.364;2022-07-30T13:05:43;32.00;68.20
23079;DHT22;11707;50.830;4.364;2022-07-30T13:08:09;33.80;60.20
23079;DHT22;11707;50.830;4.364;2022-07-30T13:10:35;33.00;58.40
23079;DHT22;11707;50.830;4.364;2022-07-30T13:13:01;32.10;58.50
23079;DHT22;11707;50.830;4.364;2022-07-30T13:15:27;31.50;58.20
23079;DHT22;11707;50.830;4.364;2022-07-30T13:17:53;30.00;60.00
23079;DHT22;11707;50.830;4.364;2022-07-30T13:20:19;29.30;62.80
23079;DHT22;11707;50.830;4.364;2022-07-30T13:22:45;28.70;64.70
23079;DHT22;11707;50.830;4.364;2022-07-30T13:25:11;28.10;66.50
23079;DHT22;11707;50.830;4.364;2022-07-30T13:27:37;27.90;66.40
23079;DHT22;11707;50.830;4.364;2022-07-30T13:30:04;27.80;67.30
23079;DHT22;11707;50.830;4.364;2022-07-30T13:32:30;27.20;69.10
23079;DHT22;11707;50.830;4.364;2022-07-30T13:34:56;27.00;70.00
23079;DHT22;11707;50.830;4.364;2022-07-30T13:37:21;26.90;71.10
23079;DHT22;11707;50.830;4.364;2022-07-30T13:39:47;26.70;71.90
23079;DHT22;11707;50.830;4.364;2022-07-30T13:42:13;27.00;72.00
23079;DHT22;11707;50.830;4.364;2022-07-30T13:44:39;27.20;71.20
23079;DHT22;11707;50.830;4.364;2022-07-30T13:47:05;27.70;70.40
23079;DHT22;11707;50.830;4.364;2022-07-30T13:49:33;28.50;68.50
23079;DHT22;11707;50.830;4.364;2022-07-30T13:52:00;29.40;68.00
23079;DHT22;11707;50.830;4.364;2022-07-30T13:54:26;29.80;66.20
23079;DHT22;11707;50.830;4.364;2022-07-30T13:56:53;30.20;64.40
23079;DHT22;11707;50.830;4.364;2022-07-30T13:59:19;30.60;63.80
23079;DHT22;11707;50.830;4.364;2022-07-30T14:01:45;31.00;62.70
23079;DHT22;11707;50.830;4.364;2022-07-30T14:04:10;30.90;62.60
23079;DHT22;11707;50.830;4.364;2022-07-30T14:06:36;31.00;62.30
23079;DHT22;11707;50.830;4.364;2022-07-30T14:09:02;31.30;61.50
23079;DHT22;11707;50.830;4.364;2022-07-30T14:11:28;31.00;61.50
23079;DHT22;11707;50.830;4.364;2022-07-30T14:13:53;31.60;59.70
23079;DHT22;11707;50.830;4.364;2022-07-30T14:16:19;31.70;59.60
23079;DHT22;11707;50.830;4.364;2022-07-30T14:18:45;31.50;59.40
23079;DHT22;11707;50.830;4.364;2022-07-30T14:21:11;31.00;59.10
23079;DHT22;11707;50.830;4.364;2022-07-30T14:23:37;30.00;61.40
23079;DHT22;11707;50.830;4.364;2022-07-30T14:26:03;29.60;61.90
23079;DHT22;11707;50.830;4.364;2022-07-30T14:28:28;29.40;63.60
23079;DHT22;11707;50.830;4.364;2022-07-30T14:30:54;29.50;62.40
23079;DHT22;11707;50.830;4.364;2022-07-30T14:33:20;29.40;63.10
23079;DHT22;11707;50.830;4.364;2022-07-30T14:35:46;29.30;61.30
23079;DHT22;11707;50.830;4.364;2022-07-30T14:38:11;29.10;60.70
23079;DHT22;11707;50.830;4.364;2022-07-30T14:40:37;28.50;61.80
23079;DHT22;11707;50.830;4.364;2022-07-30T14:43:03;28.20;63.10
23079;DHT22;11707;50.830;4.364;2022-07-30T14:45:28;28.10;62.80
23079;DHT22;11707;50.830;4.364;2022-07-30T14:47:54;28.10;62.30
23079;DHT22;11707;50.830;4.364;2022-07-30T14:50:20;27.90;63.10
23079;DHT22;11707;50.830;4.364;2022-07-30T14:52:48;28.10;63.30
23079;DHT22;11707;50.830;4.364;2022-07-30T14:55:13;28.30;63.20
23079;DHT22;11707;50.830;4.364;2022-07-30T14:57:39;28.30;63.60
23079;DHT22;11707;50.830;4.364;2022-07-30T15:00:06;28.50;64.30
23079;DHT22;11707;50.830;4.364;2022-07-30T15:02:35;28.50;63.40
23079;DHT22;11707;50.830;4.364;2022-07-30T15:05:00;28.00;65.10
23079;DHT22;11707;50.830;4.364;2022-07-30T15:07:26;27.80;65.90
23079;DHT22;11707;50.830;4.364;2022-07-30T15:09:52;27.60;66.50
23079;DHT22;11707;50.830;4.364;2022-07-30T15:12:17;27.30;67.40
23079;DHT22;11707;50.830;4.364;2022-07-30T15:14:43;27.50;67.70
23079;DHT22;11707;50.830;4.364;2022-07-30T15:17:12;27.50;67.40
23079;DHT22;11707;50.830;4.364;2022-07-30T15:19:38;27.00;68.80
23079;DHT22;11707;50.830;4.364;2022-07-30T15:22:04;26.80;69.60
23079;DHT22;11707;50.830;4.364;2022-07-30T15:24:31;26.90;69.10
23079;DHT22;11707;50.830;4.364;2022-07-30T15:26:57;27.20;68.30
23079;DHT22;11707;50.830;4.364;2022-07-30T15:29:22;26.90;68.90
23079;DHT22;11707;50.830;4.364;2022-07-30T15:31:51;27.20;68.40
23079;DHT22;11707;50.830;4.364;2022-07-30T15:34:17;26.90;69.00
23079;DHT22;11707;50.830;4.364;2022-07-30T15:36:43;27.00;69.20
23079;DHT22;11707;50.830;4.364;2022-07-30T15:39:09;26.90;68.40
23079;DHT22;11707;50.830;4.364;2022-07-30T15:41:35;27.10;68.70
23079;DHT22;11707;50.830;4.364;2022-07-30T15:44:01;27.10;68.40
23079;DHT22;11707;50.830;4.364;2022-07-30T15:46:27;27.30;68.60
23079;DHT22;11707;50.830;4.364;2022-07-30T15:48:52;27.10;68.10
23079;DHT22;11707;50.830;4.364;2022-07-30T15:51:18;27.40;67.90
23079;DHT22;11707;50.830;4.364;2022-07-30T15:53:44;27.60;66.70
23079;DHT22;11707;50.830;4.364;2022-07-30T15:56:10;27.40;66.30
23079;DHT22;11707;50.830;4.364;2022-07-30T15:58:36;27.20;66.80
23079;DHT22;11707;50.830;4.364;2022-07-30T16:01:02;27.00;68.10
23079;DHT22;11707;50.830;4.364;2022-07-30T16:03:29;27.00;67.90
23079;DHT22;11707;50.830;4.364;2022-07-30T16:05:55;26.80;69.10
23079;DHT22;11707;50.830;4.364;2022-07-30T16:08:21;26.60;69.80
23079;DHT22;11707;50.830;4.364;2022-07-30T16:10:47;26.40;70.40
23079;DHT22;11707;50.830;4.364;2022-07-30T16:13:13;26.30;71.20